Time;durP1;ratioP1;P1;durP2;ratioP2;P2;SDS_P1;SDS_P2;PMS_P1;PMS_P2;Temp;Humidity;BMP_temperature;BMP_pressure;BME280_temperature;BME280_humidity;BME280_pressure;Samples;Min_cycle;Max_cycle;Signal;HPM_P1;HPM_P2
2023/12/21 00:00:17;;;;;;;0.82;0.50;;;;;;;;;;10458105;28;20441;-74
2023/12/21 00:05:20;;;;;;;0.50;0.50;;;;;;;;;;10484552;28;20135;-73
2023/12/21 00:10:24;;;;;;;0.40;0.40;;;;;;;;;;10463020;28;20124;-73
2023/12/21 00:15:28;;;;;;;0.40;0.40;;;;;;;;;;10479153;28;20042;-74
2023/12/21 00:20:32;;;;;;;0.45;0.40;;;;;;;;;;10472537;28;20033;-74
2023/12/21 00:25:35;;;;;;;0.50;0.40;;;;;;;;;;10477545;28;20516;-74
2023/12/21 00:30:39;;;;;;;0.60;0.45;;;;;;;;;;10471381;28;20087;-74
2023/12/21 00:35:43;;;;;;;0.35;0.35;;;;;;;;;;10465751;28;20426;-74
2023/12/21 00:40:46;;;;;;;0.80;0.30;;;;;;;;;;10481751;28;20041;-74
2023/12/21 00:45:51;;;;;;;0.40;0.40;;;;;;;;;;10477186;28;20044;-74
2023/12/21 00:50:54;;;;;;;0.95;0.30;;;;;;;;;;10483954;28;20539;-73
2023/12/21 00:55:57;;;;;;;0.20;0.20;;;;;;;;;;10481147;28;20045;-74
2023/12/21 01:01:02;;;;;;;0.20;0.20;;;;;;;;;;10486177;28;20044;-74
2023/12/21 01:06:05;;;;;;;0.45;0.30;;;;;;;;;;10486683;28;20053;-74
2023/12/21 01:11:08;;;;;;;0.28;0.28;;;;;;;;;;10479917;28;20068;-74
2023/12/21 01:16:16;;;;;;;2.13;0.20;;;;;;;;;;10488686;28;20044;-74
2023/12/21 01:21:19;;;;;;;0.22;0.20;;;;;;;;;;10486729;28;20452;-73
2023/12/21 01:26:22;;;;;;;0.20;0.20;;;;;;;;;;10486496;28;20041;-74
2023/12/21 01:31:27;;;;;;;0.30;0.30;;;;;;;;;;10465119;28;20398;-73
2023/12/21 01:36:30;;;;;;;0.28;0.28;;;;;;;;;;10488921;28;20139;-74
2023/12/21 01:41:33;;;;;;;0.15;0.15;;;;;;;;;;10485431;28;20140;-73
2023/12/21 01:46:38;;;;;;;0.30;0.22;;;;;;;;;;10480044;28;20053;-73
2023/12/21 01:51:43;;;;;;;0.20;0.20;;;;;;;;;;10472320;28;20036;-74
2023/12/21 01:56:46;;;;;;;0.35;0.20;;;;;;;;;;10475842;28;20569;-73
2023/12/21 02:01:51;;;;;;;0.40;0.25;;;;;;;;;;10474297;28;20036;-74
2023/12/21 02:06:54;;;;;;;0.28;0.28;;;;;;;;;;10476999;28;20128;-73
2023/12/21 02:11:57;;;;;;;0.22;0.22;;;;;;;;;;10484214;28;20036;-74
2023/12/21 02:17:06;;;;;;;0.20;0.20;;;;;;;;;;10469402;28;20048;-73
2023/12/21 02:22:11;;;;;;;1.23;0.20;;;;;;;;;;10463806;28;20037;-74
2023/12/21 02:27:16;;;;;;;0.30;0.30;;;;;;;;;;10477749;28;20053;-73
2023/12/21 02:32:19;;;;;;;0.22;0.20;;;;;;;;;;10483354;28;20094;-74
2023/12/21 02:37:23;;;;;;;0.38;0.20;;;;;;;;;;10488034;28;20048;-74
2023/12/21 02:42:27;;;;;;;0.17;0.17;;;;;;;;;;10481817;28;20123;-74
2023/12/21 02:47:31;;;;;;;0.10;0.10;;;;;;;;;;10481290;28;20072;-73
2023/12/21 02:52:34;;;;;;;0.20;0.20;;;;;;;;;;10486109;28;20041;-73
2023/12/21 02:57:38;;;;;;;0.32;0.32;;;;;;;;;;10463497;28;20041;-73
2023/12/21 03:02:42;;;;;;;0.20;0.20;;;;;;;;;;10474930;28;20072;-74
2023/12/21 03:07:45;;;;;;;0.20;0.20;;;;;;;;;;10475316;28;20040;-74
2023/12/21 03:12:50;;;;;;;0.20;0.20;;;;;;;;;;10482238;28;20047;-74
2023/12/21 03:17:54;;;;;;;0.20;0.20;;;;;;;;;;10478328;28;20525;-74
2023/12/21 03:22:57;;;;;;;0.20;0.17;;;;;;;;;;10484415;28;20628;-73
2023/12/21 03:28:05;;;;;;;0.20;0.20;;;;;;;;;;10484217;28;20049;-74
2023/12/21 03:33:08;;;;;;;0.30;0.20;;;;;;;;;;10483676;28;20045;-73
2023/12/21 03:38:12;;;;;;;0.10;0.10;;;;;;;;;;10486090;28;20060;-73
2023/12/21 03:43:16;;;;;;;0.20;0.20;;;;;;;;;;10486093;28;20037;-73
2023/12/21 03:48:20;;;;;;;0.25;0.25;;;;;;;;;;10482150;28;20036;-73
2023/12/21 03:53:23;;;;;;;0.20;0.20;;;;;;;;;;10480548;28;20128;-74
2023/12/21 03:58:27;;;;;;;0.30;0.30;;;;;;;;;;10475063;28;20054;-73
2023/12/21 04:03:31;;;;;;;0.30;0.30;;;;;;;;;;10472229;28;20115;-73
2023/12/21 04:08:34;;;;;;;0.60;0.20;;;;;;;;;;10474646;28;20659;-73
2023/12/21 04:13:39;;;;;;;0.30;0.30;;;;;;;;;;10483914;28;20472;-74
2023/12/21 04:18:42;;;;;;;0.60;0.28;;;;;;;;;;10476765;28;20119;-73
2023/12/21 04:23:45;;;;;;;0.30;0.20;;;;;;;;;;10483103;28;20472;-74
2023/12/21 04:28:51;;;;;;;0.20;0.20;;;;;;;;;;10480357;28;20425;-74
2023/12/21 04:33:54;;;;;;;0.20;0.20;;;;;;;;;;10458790;28;20043;-73
2023/12/21 04:38:57;;;;;;;0.20;0.20;;;;;;;;;;10474106;28;20135;-74
2023/12/21 04:44:02;;;;;;;0.22;0.20;;;;;;;;;;10478516;28;20517;-73
2023/12/21 04:49:05;;;;;;;0.20;0.20;;;;;;;;;;10470252;28;20040;-73
2023/12/21 04:54:08;;;;;;;0.20;0.20;;;;;;;;;;10475110;28;20049;-73
2023/12/21 04:59:13;;;;;;;0.68;0.40;;;;;;;;;;10450808;28;20037;-73
2023/12/21 05:04:16;;;;;;;0.20;0.20;;;;;;;;;;10476121;28;20039;-74
2023/12/21 05:09:20;;;;;;;0.20;0.20;;;;;;;;;;10476411;28;20040;-74
2023/12/21 05:14:24;;;;;;;0.20;0.20;;;;;;;;;;10474528;28;20041;-74
2023/12/21 05:19:28;;;;;;;0.32;0.20;;;;;;;;;;10457293;28;20052;-73
2023/12/21 05:24:31;;;;;;;0.20;0.20;;;;;;;;;;10447608;28;20044;-74
2023/12/21 05:29:35;;;;;;;0.10;0.10;;;;;;;;;;10481865;28;20434;-74
2023/12/21 05:34:39;;;;;;;0.88;0.30;;;;;;;;;;10469252;28;20627;-74
2023/12/21 05:39:47;;;;;;;0.28;0.28;;;;;;;;;;10466214;28;20087;-73
2023/12/21 05:44:52;;;;;;;0.38;0.20;;;;;;;;;;10481035;28;20451;-73
2023/12/21 05:49:55;;;;;;;0.47;0.20;;;;;;;;;;10473438;28;20047;-73
2023/12/21 06:00:16;;;;;;;0.20;0.20;;;;;;;;;;10398636;28;20124;-74
2023/12/21 06:05:19;;;;;;;0.20;0.20;;;;;;;;;;10405024;28;20046;-73
2023/12/21 06:10:22;;;;;;;1.25;0.30;;;;;;;;;;10402294;28;20129;-74
2023/12/21 06:15:27;;;;;;;0.20;0.20;;;;;;;;;;10408411;28;20042;-73
2023/12/21 06:20:30;;;;;;;0.22;0.20;;;;;;;;;;10389962;28;20532;-74
2023/12/21 06:25:34;;;;;;;0.25;0.20;;;;;;;;;;10415549;28;20497;-73
2023/12/21 06:30:40;;;;;;;0.25;0.20;;;;;;;;;;10448625;28;20077;-73
2023/12/21 06:35:43;;;;;;;0.32;0.32;;;;;;;;;;10450283;28;20124;-73
2023/12/21 06:40:47;;;;;;;0.20;0.20;;;;;;;;;;10449950;28;20041;-74
2023/12/21 06:45:51;;;;;;;0.20;0.20;;;;;;;;;;10445559;28;20056;-73
2023/12/21 06:50:54;;;;;;;0.20;0.20;;;;;;;;;;10430961;28;20051;-74
2023/12/21 06:55:58;;;;;;;0.35;0.28;;;;;;;;;;10448699;28;20041;-73
2023/12/21 07:01:08;;;;;;;0.10;0.10;;;;;;;;;;10418657;28;20045;-73
2023/12/21 07:06:11;;;;;;;;;;;;;;;;;;10410759;28;20103;-73
2023/12/21 07:11:15;;;;;;;0.20;0.20;;;;;;;;;;10407736;28;19920;-73
2023/12/21 07:16:19;;;;;;;0.28;0.28;;;;;;;;;;10406848;28;20120;-73
2023/12/21 07:21:23;;;;;;;0.40;0.30;;;;;;;;;;10407115;28;20065;-74
2023/12/21 07:26:27;;;;;;;0.30;0.30;;;;;;;;;;10405830;28;20395;-73
2023/12/21 07:31:31;;;;;;;0.45;0.38;;;;;;;;;;10406290;28;20042;-74
2023/12/21 07:36:34;;;;;;;0.35;0.35;;;;;;;;;;10408408;28;20132;-74
2023/12/21 07:41:38;;;;;;;0.52;0.52;;;;;;;;;;10406056;28;20480;-74
2023/12/21 07:46:42;;;;;;;0.30;0.30;;;;;;;;;;10406320;28;20046;-73
2023/12/21 07:51:46;;;;;;;0.52;0.20;;;;;;;;;;10405444;28;20094;-74
2023/12/21 07:56:49;;;;;;;0.30;0.30;;;;;;;;;;10405577;28;20038;-74
2023/12/21 08:01:55;;;;;;;0.22;0.22;;;;;;;;;;10404653;28;20397;-74
2023/12/21 08:06:58;;;;;;;1.05;0.30;;;;;;;;;;10408477;28;20051;-74
2023/12/21 08:12:01;;;;;;;0.47;0.40;;;;;;;;;;10404746;28;20720;-73
2023/12/21 08:17:09;;;;;;;0.32;0.22;;;;;;;;;;10405066;28;20515;-74
2023/12/21 08:22:13;;;;;;;0.45;0.30;;;;;;;;;;10405664;28;20510;-73
2023/12/21 08:27:16;;;;;;;0.20;0.20;;;;;;;;;;10400487;28;20036;-74
2023/12/21 08:32:21;;;;;;;0.30;0.30;;;;;;;;;;10402827;28;20053;-74
2023/12/21 08:37:24;;;;;;;0.40;0.40;;;;;;;;;;10409028;28;20045;-74
2023/12/21 08:42:27;;;;;;;0.30;0.20;;;;;;;;;;10405997;28;20140;-73
2023/12/21 08:47:40;;;;;;;0.20;0.20;;;;;;;;;;10405687;28;20495;-74
2023/12/21 08:52:43;;;;;;;0.30;0.30;;;;;;;;;;10405117;28;20709;-74
2023/12/21 08:57:47;;;;;;;0.28;0.28;;;;;;;;;;10403624;28;20052;-73
2023/12/21 09:02:51;;;;;;;0.32;0.32;;;;;;;;;;10400962;28;20037;-73
2023/12/21 09:07:57;;;;;;;0.20;0.20;;;;;;;;;;10404008;28;20041;-74
2023/12/21 09:13:00;;;;;;;0.30;0.25;;;;;;;;;;10406556;28;20045;-74
2023/12/21 09:18:07;;;;;;;0.20;0.20;;;;;;;;;;10411564;28;20057;-74
2023/12/21 09:23:10;;;;;;;0.68;0.30;;;;;;;;;;10411620;28;20570;-74
2023/12/21 09:28:14;;;;;;;0.32;0.30;;;;;;;;;;10409761;28;20403;-74
2023/12/21 09:33:19;;;;;;;0.30;0.30;;;;;;;;;;10411051;28;20055;-73
2023/12/21 09:38:22;;;;;;;0.47;0.30;;;;;;;;;;10411598;28;20072;-73
2023/12/21 09:43:27;;;;;;;0.20;0.20;;;;;;;;;;10410611;28;20096;-74
2023/12/21 09:48:33;;;;;;;0.20;0.20;;;;;;;;;;10408770;28;20124;-73
2023/12/21 09:53:37;;;;;;;0.20;0.20;;;;;;;;;;10410723;28;20057;-73
2023/12/21 09:58:42;;;;;;;0.20;0.20;;;;;;;;;;10408345;28;20055;-74
2023/12/21 10:03:47;;;;;;;0.90;0.30;;;;;;;;;;10410004;28;20049;-74
2023/12/21 10:08:51;;;;;;;0.20;0.20;;;;;;;;;;10410448;28;20049;-74
2023/12/21 10:13:56;;;;;;;0.20;0.20;;;;;;;;;;10409994;28;20052;-74
2023/12/21 10:19:00;;;;;;;0.35;0.30;;;;;;;;;;10406863;28;20144;-74
2023/12/21 10:24:05;;;;;;;0.35;0.30;;;;;;;;;;10408859;28;20068;-74
2023/12/21 10:29:09;;;;;;;0.30;0.30;;;;;;;;;;10408750;28;20052;-74
2023/12/21 10:34:14;;;;;;;1.05;0.25;;;;;;;;;;10409013;28;20049;-74
2023/12/21 10:39:18;;;;;;;0.75;0.25;;;;;;;;;;10403788;28;20052;-74
2023/12/21 10:44:23;;;;;;;0.52;0.40;;;;;;;;;;10408298;28;20041;-74
2023/12/21 10:49:28;;;;;;;0.70;0.28;;;;;;;;;;10408065;28;20041;-74
2023/12/21 10:54:33;;;;;;;0.33;0.33;;;;;;;;;;10408390;28;20041;-74
2023/12/21 10:59:37;;;;;;;0.20;0.20;;;;;;;;;;10406239;28;20568;-74
2023/12/21 11:04:43;;;;;;;0.70;0.30;;;;;;;;;;10407705;28;20525;-74
2023/12/21 11:09:47;;;;;;;0.20;0.20;;;;;;;;;;10407343;28;20091;-74
2023/12/21 11:14:51;;;;;;;0.95;0.43;;;;;;;;;;10402762;28;20053;-74
2023/12/21 11:19:58;;;;;;;0.95;0.60;;;;;;;;;;10405288;28;20052;-74
2023/12/21 11:25:02;;;;;;;0.30;0.20;;;;;;;;;;10404561;28;20491;-73
2023/12/21 11:30:10;;;;;;;0.30;0.30;;;;;;;;;;10404486;28;20141;-74
2023/12/21 11:35:24;;;;;;;0.70;0.50;;;;;;;;;;10403570;28;20335;-74
2023/12/21 11:40:27;;;;;;;0.47;0.30;;;;;;;;;;10405790;28;20171;-74
2023/12/21 11:45:31;;;;;;;0.50;0.40;;;;;;;;;;10405295;28;20483;-74
2023/12/21 11:50:36;;;;;;;1.38;0.38;;;;;;;;;;10404800;28;20075;-74
2023/12/21 11:55:41;;;;;;;0.30;0.30;;;;;;;;;;10407345;23;20073;-73
2023/12/21 12:00:48;;;;;;;0.82;0.40;;;;;;;;;;10366794;28;20527;-73
2023/12/21 12:05:59;;;;;;;0.90;0.50;;;;;;;;;;10386201;28;20493;-73
2023/12/21 12:11:04;;;;;;;1.05;0.43;;;;;;;;;;10392935;28;20133;-73
2023/12/21 12:16:08;;;;;;;0.40;0.40;;;;;;;;;;10388302;28;20052;-73
2023/12/21 12:21:13;;;;;;;0.35;0.32;;;;;;;;;;10363745;28;20087;-73
2023/12/21 12:26:17;;;;;;;0.63;0.35;;;;;;;;;;10370645;28;20500;-74
2023/12/21 12:31:20;;;;;;;0.52;0.30;;;;;;;;;;10393972;28;20051;-73
2023/12/21 12:36:25;;;;;;;0.40;0.30;;;;;;;;;;10393186;28;20134;-73
2023/12/21 12:41:28;;;;;;;0.63;0.52;;;;;;;;;;10389565;28;20498;-73
2023/12/21 12:46:32;;;;;;;0.45;0.32;;;;;;;;;;10394812;28;20043;-74
2023/12/21 12:51:37;;;;;;;0.43;0.38;;;;;;;;;;10391212;28;20044;-74
2023/12/21 12:56:46;;;;;;;1.15;0.50;;;;;;;;;;10395122;28;20050;-74
2023/12/21 13:01:49;;;;;;;0.90;0.68;;;;;;;;;;10397462;28;20406;-74
2023/12/21 13:06:54;;;;;;;0.50;0.50;;;;;;;;;;10394768;28;20505;-74
2023/12/21 13:11:59;;;;;;;0.70;0.50;;;;;;;;;;10397369;28;20815;-74
2023/12/21 13:17:02;;;;;;;0.70;0.50;;;;;;;;;;10388396;28;20046;-74
2023/12/21 13:22:07;;;;;;;0.95;0.70;;;;;;;;;;10397384;28;20041;-74
2023/12/21 13:27:10;;;;;;;0.85;0.30;;;;;;;;;;10397772;28;20049;-74
2023/12/21 13:32:14;;;;;;;0.55;0.47;;;;;;;;;;10393030;28;20057;-74
2023/12/21 13:37:19;;;;;;;0.80;0.60;;;;;;;;;;10395606;28;20052;-74
2023/12/21 13:42:22;;;;;;;0.70;0.50;;;;;;;;;;10387430;28;20042;-74
2023/12/21 13:47:25;;;;;;;0.45;0.35;;;;;;;;;;10398801;28;20632;-74
2023/12/21 13:52:30;;;;;;;0.30;0.30;;;;;;;;;;10395266;28;20046;-73
2023/12/21 13:57:33;;;;;;;1.45;0.50;;;;;;;;;;10397778;28;20133;-74
2023/12/21 14:02:37;;;;;;;1.98;1.13;;;;;;;;;;10395103;28;20041;-73
2023/12/21 14:07:41;;;;;;;0.80;0.60;;;;;;;;;;10395324;28;20029;-73
2023/12/21 14:12:44;;;;;;;0.80;0.50;;;;;;;;;;10395697;28;20053;-74
2023/12/21 14:17:48;;;;;;;0.77;0.70;;;;;;;;;;10388246;28;20045;-73
2023/12/21 14:22:53;;;;;;;2.47;0.75;;;;;;;;;;10370758;28;20054;-73
2023/12/21 14:27:56;;;;;;;0.85;0.47;;;;;;;;;;10370758;28;20070;-74
2023/12/21 14:32:59;;;;;;;0.70;0.63;;;;;;;;;;10371782;28;20052;-74
2023/12/21 14:38:04;;;;;;;1.50;0.50;;;;;;;;;;10370171;28;20069;-74
2023/12/21 14:43:08;;;;;;;1.70;0.73;;;;;;;;;;10371194;28;20036;-73
2023/12/21 14:48:12;;;;;;;0.90;0.50;;;;;;;;;;10378286;28;20113;-74
2023/12/21 14:53:17;;;;;;;1.08;0.60;;;;;;;;;;10377113;28;20046;-74
2023/12/21 14:58:20;;;;;;;1.20;0.50;;;;;;;;;;10364288;28;20040;-74
2023/12/21 15:03:23;;;;;;;1.50;1.10;;;;;;;;;;10359243;28;20049;-73
2023/12/21 15:08:29;;;;;;;1.05;0.50;;;;;;;;;;10364790;28;20124;-73
2023/12/21 15:13:32;;;;;;;1.33;0.60;;;;;;;;;;10354651;28;20073;-73
2023/12/21 15:18:35;;;;;;;1.10;0.50;;;;;;;;;;10378825;28;20040;-74
2023/12/21 15:23:40;;;;;;;2.00;0.80;;;;;;;;;;10396091;28;20439;-73
2023/12/21 15:28:43;;;;;;;1.17;0.80;;;;;;;;;;10384731;28;20076;-74
2023/12/21 15:33:46;;;;;;;0.65;0.50;;;;;;;;;;10394185;28;20434;-74
2023/12/21 15:38:51;;;;;;;2.13;0.70;;;;;;;;;;10385459;28;20076;-74
2023/12/21 15:43:54;;;;;;;0.75;0.60;;;;;;;;;;10378322;28;20080;-73
2023/12/21 15:48:57;;;;;;;0.95;0.60;;;;;;;;;;10383890;28;20120;-73
2023/12/21 15:54:02;;;;;;;3.67;1.05;;;;;;;;;;10385444;28;20140;-74
2023/12/21 15:59:06;;;;;;;1.05;0.50;;;;;;;;;;10398023;28;20506;-74
2023/12/21 16:04:09;;;;;;;2.28;0.85;;;;;;;;;;10386120;28;20050;-73
2023/12/21 16:09:15;;;;;;;3.95;1.58;;;;;;;;;;10397227;28;20041;-74
2023/12/21 16:14:18;;;;;;;2.65;1.52;;;;;;;;;;10386859;28;20050;-74
2023/12/21 16:19:21;;;;;;;1.27;0.63;;;;;;;;;;10371529;28;20532;-74
2023/12/21 16:24:26;;;;;;;2.45;0.90;;;;;;;;;;10369073;28;20060;-74
2023/12/21 16:29:29;;;;;;;1.33;0.63;;;;;;;;;;10374978;28;20533;-74
2023/12/21 16:34:38;;;;;;;2.42;1.00;;;;;;;;;;10378875;28;20057;-74
2023/12/21 16:39:43;;;;;;;3.45;0.77;;;;;;;;;;10392800;28;20049;-74
2023/12/21 16:44:46;;;;;;;1.58;0.70;;;;;;;;;;10379846;28;20052;-74
2023/12/21 16:49:50;;;;;;;2.80;0.70;;;;;;;;;;10378872;28;20049;-74
2023/12/21 16:54:54;;;;;;;1.92;0.80;;;;;;;;;;10384947;28;20057;-74
2023/12/21 16:59:57;;;;;;;2.38;0.82;;;;;;;;;;10366972;28;20123;-74
2023/12/21 17:05:02;;;;;;;2.80;1.17;;;;;;;;;;10368488;28;20470;-74
2023/12/21 17:10:08;;;;;;;1.73;1.13;;;;;;;;;;10385114;28;20053;-74
2023/12/21 17:15:11;;;;;;;3.67;0.97;;;;;;;;;;10387109;28;20051;-74
2023/12/21 17:20:15;;;;;;;4.45;1.35;;;;;;;;;;10377864;28;20129;-74
2023/12/21 17:25:21;;;;;;;2.83;1.35;;;;;;;;;;10378789;28;20525;-74
2023/12/21 17:30:24;;;;;;;6.47;1.42;;;;;;;;;;10369875;28;20518;-73
2023/12/21 17:35:28;;;;;;;5.50;1.67;;;;;;;;;;10371854;28;20247;-74
2023/12/21 17:40:32;;;;;;;2.95;1.10;;;;;;;;;;10378277;28;20395;-74
2023/12/21 17:45:36;;;;;;;7.00;1.33;;;;;;;;;;10370896;28;20523;-74
2023/12/21 17:50:39;;;;;;;4.60;1.58;;;;;;;;;;10369639;28;20133;-74
2023/12/21 17:55:43;;;;;;;5.70;2.17;;;;;;;;;;10386929;23;20047;-74
2023/12/21 18:00:47;;;;;;;5.35;1.63;;;;;;;;;;10233285;28;20044;-75
2023/12/21 18:05:51;;;;;;;4.85;1.27;;;;;;;;;;10230455;28;20146;-75
2023/12/21 18:10:56;;;;;;;2.10;0.77;;;;;;;;;;10227083;28;20053;-75
2023/12/21 18:15:59;;;;;;;2.97;1.00;;;;;;;;;;10233158;28;20040;-75
2023/12/21 18:21:03;;;;;;;3.25;1.30;;;;;;;;;;10227389;28;20401;-74
2023/12/21 18:26:11;;;;;;;3.17;1.00;;;;;;;;;;10223109;28;20047;-75
2023/12/21 18:31:14;;;;;;;3.15;1.30;;;;;;;;;;10224212;28;20460;-75
2023/12/21 18:36:18;;;;;;;3.75;0.95;;;;;;;;;;10230730;28;20055;-75
2023/12/21 18:41:23;;;;;;;3.45;1.02;;;;;;;;;;10239757;28;20035;-75
2023/12/21 18:46:26;;;;;;;2.30;0.73;;;;;;;;;;10242540;28;20055;-75
2023/12/21 18:51:29;;;;;;;5.38;1.23;;;;;;;;;;10242595;28;20126;-75
2023/12/21 18:56:34;;;;;;;4.28;1.10;;;;;;;;;;10241748;28;20051;-75
2023/12/21 19:01:37;;;;;;;3.40;1.00;;;;;;;;;;10245979;28;20051;-75
2023/12/21 19:06:41;;;;;;;3.22;1.10;;;;;;;;;;10242556;28;20055;-75
2023/12/21 19:11:45;;;;;;;1.45;0.60;;;;;;;;;;10240535;28;20130;-75
2023/12/21 19:16:48;;;;;;;1.73;0.70;;;;;;;;;;10241894;28;20047;-75
2023/12/21 19:21:52;;;;;;;1.58;0.80;;;;;;;;;;10248413;28;20058;-75
2023/12/21 19:26:56;;;;;;;1.83;1.08;;;;;;;;;;10252894;28;20425;-75
2023/12/21 19:32:00;;;;;;;3.60;1.10;;;;;;;;;;10243989;28;20047;-75
2023/12/21 19:37:03;;;;;;;3.40;1.10;;;;;;;;;;10247178;28;20066;-75
2023/12/21 19:42:08;;;;;;;7.43;1.52;;;;;;;;;;10243818;28;20043;-75
2023/12/21 19:47:12;;;;;;;4.13;1.42;;;;;;;;;;10243948;28;20047;-75
2023/12/21 19:52:15;;;;;;;3.33;1.40;;;;;;;;;;10243303;28;20039;-75
2023/12/21 19:57:20;;;;;;;2.15;0.70;;;;;;;;;;10243366;28;20052;-75
2023/12/21 20:02:23;;;;;;;1.40;0.70;;;;;;;;;;10243048;28;20580;-75
2023/12/21 20:07:28;;;;;;;1.02;0.80;;;;;;;;;;10283938;23;20062;-74
2023/12/21 20:12:33;;;;;;;3.00;1.03;;;;;;;;;;10359582;28;20045;-75
2023/12/21 20:17:36;;;;;;;1.23;0.80;;;;;;;;;;10353086;28;20505;-75
2023/12/21 20:22:40;;;;;;;2.88;0.80;;;;;;;;;;10358006;28;20052;-75
2023/12/21 20:27:46;;;;;;;1.08;0.63;;;;;;;;;;10341798;28;20045;-75
2023/12/21 20:32:50;;;;;;;2.78;0.70;;;;;;;;;;10357941;28;20068;-75
2023/12/21 20:37:54;;;;;;;2.00;0.90;;;;;;;;;;10340292;28;20053;-74
2023/12/21 20:42:58;;;;;;;2.35;0.93;;;;;;;;;;10362515;28;20506;-75
2023/12/21 20:48:02;;;;;;;3.72;1.42;;;;;;;;;;10358139;28;20487;-75
2023/12/21 20:53:06;;;;;;;3.08;1.50;;;;;;;;;;10357491;28;20431;-75
2023/12/21 20:58:10;;;;;;;2.55;1.30;;;;;;;;;;10359984;28;20668;-75
2023/12/21 21:03:14;;;;;;;2.78;1.10;;;;;;;;;;10343835;28;20049;-75
2023/12/21 21:08:17;;;;;;;2.05;0.90;;;;;;;;;;10362898;28;20042;-75
2023/12/21 21:13:22;;;;;;;2.40;0.80;;;;;;;;;;10367538;28;20760;-75
2023/12/21 21:18:25;;;;;;;2.85;1.02;;;;;;;;;;10371396;28;20064;-75
2023/12/21 21:23:29;;;;;;;0.68;0.60;;;;;;;;;;10371336;28;20046;-75
2023/12/21 21:28:34;;;;;;;0.80;0.47;;;;;;;;;;10369672;28;20065;-75
2023/12/21 21:33:37;;;;;;;0.60;0.40;;;;;;;;;;10369574;28;20202;-75
2023/12/21 21:38:40;;;;;;;0.32;0.32;;;;;;;;;;10365181;28;20743;-75
2023/12/21 21:43:46;;;;;;;0.40;0.40;;;;;;;;;;10365373;28;20045;-75
2023/12/21 21:48:49;;;;;;;0.50;0.50;;;;;;;;;;10366540;28;20267;-75
2023/12/21 21:53:52;;;;;;;0.80;0.43;;;;;;;;;;10366987;28;20054;-75
2023/12/21 21:59:00;;;;;;;1.38;0.60;;;;;;;;;;10367328;28;20050;-75
2023/12/21 22:04:03;;;;;;;0.95;0.50;;;;;;;;;;10366563;28;20108;-75
2023/12/21 22:09:07;;;;;;;0.40;0.40;;;;;;;;;;10365831;28;20046;-75
2023/12/21 22:14:11;;;;;;;1.58;0.40;;;;;;;;;;10366397;28;20033;-75
2023/12/21 22:19:15;;;;;;;0.43;0.30;;;;;;;;;;10346263;28;20507;-74
2023/12/21 22:24:18;;;;;;;1.05;0.40;;;;;;;;;;10365648;28;20107;-75
2023/12/21 22:29:23;;;;;;;0.40;0.40;;;;;;;;;;10364978;28;20042;-75
2023/12/21 22:34:26;;;;;;;1.38;0.50;;;;;;;;;;10363380;28;20034;-75
2023/12/21 22:39:32;;;;;;;0.88;0.50;;;;;;;;;;10364986;28;20060;-75
2023/12/21 22:44:36;;;;;;;0.68;0.50;;;;;;;;;;10361840;28;20042;-75
2023/12/21 22:49:40;;;;;;;1.15;0.60;;;;;;;;;;10364296;28;20034;-75
2023/12/21 22:54:43;;;;;;;1.25;0.47;;;;;;;;;;10364736;28;20065;-75
2023/12/21 22:59:48;;;;;;;2.30;0.60;;;;;;;;;;10362507;28;20053;-75
2023/12/21 23:04:53;;;;;;;1.25;0.60;;;;;;;;;;10363788;28;20045;-75
2023/12/21 23:09:56;;;;;;;0.70;0.40;;;;;;;;;;10358343;28;20157;-75
2023/12/21 23:15:00;;;;;;;1.30;0.60;;;;;;;;;;10362946;28;20054;-75
2023/12/21 23:20:05;;;;;;;0.73;0.60;;;;;;;;;;10363064;28;20072;-75
2023/12/21 23:25:09;;;;;;;0.98;0.50;;;;;;;;;;10363663;28;20069;-75
2023/12/21 23:30:14;;;;;;;1.08;0.50;;;;;;;;;;10361764;28;20045;-75
2023/12/21 23:35:17;;;;;;;1.33;0.50;;;;;;;;;;10360467;28;20091;-75
2023/12/21 23:40:21;;;;;;;1.80;0.77;;;;;;;;;;10359774;28;20076;-75
2023/12/21 23:45:25;;;;;;;0.82;0.60;;;;;;;;;;10363438;28;20156;-75
2023/12/21 23:50:28;;;;;;;1.05;0.50;;;;;;;;;;10345156;28;20042;-75
2023/12/21 23:55:32;;;;;;;1.05;0.40;;;;;;;;;;10374259;23;20652;-76
